Time;durP1;ratioP1;P1;durP2;ratioP2;P2;SDS_P1;SDS_P2;PMS_P1;PMS_P2;Temp;Humidity;BMP_temperature;BMP_pressure;BME280_temperature;BME280_humidity;BME280_pressure;Samples;Min_cycle;Max_cycle;Signal;HPM_P1;HPM_P2
2023/06/30 00:01:48;;;;;;;;;8.50;7.00;;;;;;;;119756;1192;24763;-69
2023/06/30 00:04:18;;;;;;;;;5.33;5.33;;;;;;;;119703;1193;24727;-69
2023/06/30 00:06:50;;;;;;;;;5.00;5.00;;;;;;;;119438;1193;25219;-69
2023/06/30 00:09:19;;;;;;;;;5.00;5.00;;;;;;;;119701;1192;25168;-68
2023/06/30 00:11:53;;;;;;;;;9.00;5.50;;;;;;;;119466;1192;24758;-69
2023/06/30 00:14:22;;;;;;;;;5.00;5.00;;;;;;;;119488;1192;24769;-69
2023/06/30 00:16:50;;;;;;;;;5.00;5.00;;;;;;;;119509;1180;24775;-68
2023/06/30 00:19:19;;;;;;;;;6.33;4.33;;;;;;;;119481;1189;24995;-68
2023/06/30 00:21:52;;;;;;;;;6.67;5.67;;;;;;;;119861;1192;25296;-68
2023/06/30 00:24:20;;;;;;;;;6.50;5.50;;;;;;;;119860;1192;25569;-69
2023/06/30 00:26:48;;;;;;;;;4.00;4.00;;;;;;;;119855;1192;25031;-69
2023/06/30 00:29:17;;;;;;;;;4.67;4.67;;;;;;;;119871;1183;25255;-68
2023/06/30 00:31:45;;;;;;;;;7.00;6.00;;;;;;;;119884;1192;25522;-68
2023/06/30 00:34:13;;;;;;;;;5.33;5.33;;;;;;;;119476;1192;25413;-68
2023/06/30 00:36:42;;;;;;;;;5.33;5.33;;;;;;;;119864;1183;25125;-69
2023/06/30 00:39:10;;;;;;;;;4.00;4.00;;;;;;;;119854;1192;25424;-69
2023/06/30 00:41:38;;;;;;;;;6.33;6.33;;;;;;;;119882;1192;24754;-68
2023/06/30 00:44:06;;;;;;;;;6.00;6.00;;;;;;;;119838;1184;25532;-68
2023/06/30 00:46:35;;;;;;;;;6.00;6.00;;;;;;;;119465;1185;25653;-68
2023/06/30 00:49:03;;;;;;;;;6.00;5.00;;;;;;;;119455;1193;24966;-68
2023/06/30 00:51:32;;;;;;;;;5.00;5.00;;;;;;;;119682;1193;25238;-68
2023/06/30 00:54:00;;;;;;;;;6.00;4.00;;;;;;;;119670;1193;24992;-67
2023/06/30 00:56:28;;;;;;;;;6.00;5.67;;;;;;;;119452;1193;25097;-68
2023/06/30 00:58:57;;;;;;;;;4.00;4.00;;;;;;;;119456;1186;24847;-68
2023/06/30 01:01:39;;;;;;;;;7.00;7.00;;;;;;;;119696;1185;25235;-68
2023/06/30 01:04:19;;;;;;;;;5.00;4.75;;;;;;;;119520;1192;25295;-68
2023/06/30 01:07:23;;;;;;;;;5.25;5.25;;;;;;;;119488;1192;24919;-68
2023/06/30 01:09:56;;;;;;;;;7.50;5.50;;;;;;;;119855;1192;24998;-68
2023/06/30 01:12:25;;;;;;;;;5.00;5.00;;;;;;;;119497;1192;24851;-68
2023/06/30 01:14:53;;;;;;;;;5.67;5.67;;;;;;;;119492;1192;25326;-68
2023/06/30 01:17:24;;;;;;;;;7.50;5.00;;;;;;;;119846;1183;25405;-69
2023/06/30 01:19:54;;;;;;;;;5.00;5.00;;;;;;;;119496;1192;25207;-68
2023/06/30 01:23:00;;;;;;;;;5.75;4.00;;;;;;;;119469;1192;24680;-67
2023/06/30 01:25:29;;;;;;;;;6.67;5.33;;;;;;;;119137;1188;25509;-68
2023/06/30 01:27:58;;;;;;;;;6.75;5.75;;;;;;;;119469;1193;24935;-68
2023/06/30 01:30:29;;;;;;;;;7.33;5.33;;;;;;;;119460;1190;25009;-68
2023/06/30 01:32:59;;;;;;;;;5.67;5.67;;;;;;;;119689;1193;24826;-68
2023/06/30 01:35:28;;;;;;;;;6.00;5.00;;;;;;;;119456;1193;25671;-69
2023/06/30 01:37:56;;;;;;;;;4.33;4.00;;;;;;;;119460;1193;25295;-69
2023/06/30 01:40:25;;;;;;;;;6.00;5.00;;;;;;;;119470;1186;24985;-69
2023/06/30 01:42:55;;;;;;;;;5.33;4.67;;;;;;;;119684;1193;25322;-69
2023/06/30 01:45:28;;;;;;;;;5.33;5.33;;;;;;;;119448;1193;25120;-68
2023/06/30 01:47:57;;;;;;;;;5.00;4.00;;;;;;;;119444;1193;25550;-68
2023/06/30 01:50:29;;;;;;;;;5.00;5.00;;;;;;;;119460;1193;25685;-68
2023/06/30 01:52:59;;;;;;;;;6.00;6.00;;;;;;;;119744;1185;25582;-68
2023/06/30 01:55:27;;;;;;;;;5.33;5.33;;;;;;;;119694;1189;25758;-68
2023/06/30 01:57:55;;;;;;;;;5.00;4.67;;;;;;;;119455;1192;25237;-68
2023/06/30 02:00:23;;;;;;;;;3.50;3.50;;;;;;;;119757;1192;25195;-68
2023/06/30 02:02:52;;;;;;;;;5.00;4.33;;;;;;;;119449;1186;25785;-68
2023/06/30 02:05:20;;;;;;;;;4.00;4.00;;;;;;;;119761;1191;25410;-68
2023/06/30 02:07:49;;;;;;;;;4.00;4.00;;;;;;;;119773;1184;25309;-68
2023/06/30 02:10:17;;;;;;;;;6.75;6.00;;;;;;;;119474;1192;25063;-68
2023/06/30 02:12:45;;;;;;;;;5.00;3.67;;;;;;;;119786;1192;25156;-68
2023/06/30 02:15:14;;;;;;;;;6.75;5.00;;;;;;;;119781;1185;24730;-67
2023/06/30 02:17:42;;;;;;;;;4.67;4.67;;;;;;;;119689;1189;24988;-68
2023/06/30 02:20:12;;;;;;;;;4.00;4.00;;;;;;;;119860;1192;25029;-67
2023/06/30 02:22:40;;;;;;;;;7.00;6.00;;;;;;;;119866;1192;25313;-67
2023/06/30 02:25:08;;;;;;;;;5.50;5.00;;;;;;;;119872;1189;25299;-68
2023/06/30 02:27:37;;;;;;;;;6.50;6.00;;;;;;;;119861;1183;25093;-68
2023/06/30 02:30:08;;;;;;;;;5.25;5.00;;;;;;;;119887;1192;25074;-68
2023/06/30 02:32:37;;;;;;;;;7.00;6.33;;;;;;;;119878;1183;25479;-68
2023/06/30 02:35:07;;;;;;;;;5.00;5.00;;;;;;;;119878;1192;24882;-68
2023/06/30 02:37:37;;;;;;;;;4.00;4.00;;;;;;;;119541;1192;25196;-68
2023/06/30 02:40:06;;;;;;;;;7.33;5.33;;;;;;;;119515;1186;24739;-68
2023/06/30 02:42:35;;;;;;;;;6.00;5.00;;;;;;;;119622;1180;25636;-68
2023/06/30 02:45:04;;;;;;;;;7.00;5.00;;;;;;;;119447;1193;25708;-68
2023/06/30 02:47:33;;;;;;;;;4.50;4.00;;;;;;;;119444;1193;24863;-68
2023/06/30 02:50:02;;;;;;;;;4.25;4.25;;;;;;;;119456;1193;25780;-67
2023/06/30 02:52:30;;;;;;;;;10.00;5.50;;;;;;;;119440;1193;25608;-68
2023/06/30 02:54:59;;;;;;;;;6.00;6.00;;;;;;;;119705;1185;25509;-67
2023/06/30 02:57:27;;;;;;;;;8.00;6.67;;;;;;;;119670;1192;25367;-68
2023/06/30 02:59:56;;;;;;;;;8.33;7.00;;;;;;;;119711;1186;25273;-68
2023/06/30 03:02:25;;;;;;;;;9.00;7.25;;;;;;;;119455;1193;24734;-68
2023/06/30 03:04:55;;;;;;;;;3.75;3.75;;;;;;;;119442;1193;25285;-68
2023/06/30 03:07:24;;;;;;;;;6.00;6.00;;;;;;;;119739;1185;24944;-67
2023/06/30 03:09:52;;;;;;;;;5.33;5.33;;;;;;;;119672;1193;25003;-68
2023/06/30 03:12:20;;;;;;;;;7.00;7.00;;;;;;;;119687;1193;25533;-68
2023/06/30 03:14:49;;;;;;;;;4.50;4.50;;;;;;;;119706;1186;24894;-68
2023/06/30 03:17:17;;;;;;;;;5.50;5.50;;;;;;;;119795;1192;25355;-68
2023/06/30 03:19:46;;;;;;;;;4.00;4.00;;;;;;;;119455;1185;25155;-68
2023/06/30 03:22:14;;;;;;;;;7.00;6.00;;;;;;;;119803;1192;24693;-67
2023/06/30 03:24:42;;;;;;;;;9.00;7.25;;;;;;;;119853;1192;26468;-67
2023/06/30 03:27:11;;;;;;;;;6.00;6.00;;;;;;;;119862;1192;25162;-67
2023/06/30 03:29:39;;;;;;;;;8.00;6.00;;;;;;;;119881;1183;25132;-68
2023/06/30 03:32:07;;;;;;;;;6.25;5.25;;;;;;;;119867;1192;25657;-69
2023/06/30 03:34:36;;;;;;;;;8.67;7.00;;;;;;;;119878;1184;25143;-68
2023/06/30 03:37:04;;;;;;;;;6.00;5.00;;;;;;;;119861;1184;25486;-68
2023/06/30 03:39:33;;;;;;;;;5.33;5.00;;;;;;;;119865;1192;24810;-68
2023/06/30 03:42:01;;;;;;;;;7.75;7.75;;;;;;;;119495;1192;24946;-68
2023/06/30 03:44:29;;;;;;;;;7.00;6.67;;;;;;;;119509;1192;25161;-68
2023/06/30 03:46:58;;;;;;;;;4.50;4.50;;;;;;;;119783;1189;25428;-68
2023/06/30 03:49:26;;;;;;;;;8.00;7.50;;;;;;;;119765;1183;25610;-68
2023/06/30 03:51:54;;;;;;;;;5.67;5.00;;;;;;;;119825;1189;25307;-70
2023/06/30 03:54:23;;;;;;;;;8.00;8.00;;;;;;;;119787;1188;25508;-70
2023/06/30 03:56:51;;;;;;;;;7.67;5.00;;;;;;;;119610;1181;25627;-71
2023/06/30 03:59:19;;;;;;;;;5.50;5.50;;;;;;;;119810;1189;25509;-70
2023/06/30 04:01:48;;;;;;;;;7.50;7.00;;;;;;;;119913;1188;25407;-68
2023/06/30 04:04:16;;;;;;;;;6.00;6.00;;;;;;;;119459;1192;25710;-70
2023/06/30 04:06:46;;;;;;;;;6.67;6.67;;;;;;;;119447;1189;24760;-70
2023/06/30 04:09:14;;;;;;;;;7.00;6.50;;;;;;;;119779;1189;25490;-71
2023/06/30 04:11:43;;;;;;;;;5.50;5.50;;;;;;;;119791;1192;24894;-71
2023/06/30 04:14:11;;;;;;;;;9.00;7.00;;;;;;;;119460;1193;24722;-70
2023/06/30 04:16:39;;;;;;;;;8.50;6.50;;;;;;;;119830;1189;25637;-68
2023/06/30 04:19:08;;;;;;;;;10.00;8.00;;;;;;;;119477;1189;25849;-69
2023/06/30 04:21:36;;;;;;;;;7.00;5.00;;;;;;;;119802;1183;24718;-69
2023/06/30 04:24:05;;;;;;;;;6.00;6.00;;;;;;;;119861;1189;25507;-67
2023/06/30 04:26:35;;;;;;;;;6.33;6.33;;;;;;;;119742;1188;25480;-68
2023/06/30 04:29:03;;;;;;;;;6.00;5.67;;;;;;;;119451;1186;25036;-69
2023/06/30 04:31:31;;;;;;;;;9.50;7.50;;;;;;;;119785;1192;25577;-68
2023/06/30 04:34:00;;;;;;;;;11.00;8.00;;;;;;;;119867;1192;25249;-66
2023/06/30 04:36:29;;;;;;;;;10.00;9.50;;;;;;;;119889;1183;25029;-65
2023/06/30 04:38:57;;;;;;;;;18.00;14.33;;;;;;;;119516;1185;24790;-64
2023/06/30 04:41:26;;;;;;;;;15.33;12.67;;;;;;;;119851;1192;25272;-64
2023/06/30 04:43:54;;;;;;;;;14.00;11.67;;;;;;;;119744;1192;25220;-64
2023/06/30 04:46:25;;;;;;;;;12.25;8.75;;;;;;;;119866;1192;25023;-65
2023/06/30 04:48:55;;;;;;;;;17.00;15.33;;;;;;;;119525;1185;24726;-64
2023/06/30 04:51:24;;;;;;;;;13.50;10.50;;;;;;;;119474;1192;24907;-64
2023/06/30 04:53:53;;;;;;;;;14.50;11.50;;;;;;;;119871;1192;24746;-64
2023/06/30 04:56:21;;;;;;;;;16.00;13.00;;;;;;;;119453;1193;25212;-65
2023/06/30 04:58:52;;;;;;;;;18.67;17.00;;;;;;;;119797;1192;25465;-65
2023/06/30 05:01:20;;;;;;;;;18.33;15.00;;;;;;;;119495;1192;25642;-65
2023/06/30 05:03:49;;;;;;;;;14.75;13.25;;;;;;;;119445;1184;24969;-64
2023/06/30 05:06:17;;;;;;;;;20.67;12.67;;;;;;;;119862;1184;25576;-65
2023/06/30 05:08:45;;;;;;;;;14.00;11.00;;;;;;;;119744;1192;24914;-64
2023/06/30 05:11:14;;;;;;;;;18.25;13.25;;;;;;;;119753;1192;24971;-65
2023/06/30 05:13:42;;;;;;;;;12.00;10.00;;;;;;;;119695;1185;25209;-65
2023/06/30 05:16:12;;;;;;;;;14.00;11.00;;;;;;;;119747;1192;26397;-67
2023/06/30 05:18:40;;;;;;;;;11.50;9.00;;;;;;;;119498;1186;25517;-62
2023/06/30 05:21:08;;;;;;;;;14.33;11.33;;;;;;;;119793;1192;25627;-61
2023/06/30 05:23:37;;;;;;;;;11.00;9.00;;;;;;;;119853;1191;25253;-64
2023/06/30 05:26:06;;;;;;;;;16.00;13.50;;;;;;;;119515;1185;25639;-71
2023/06/30 05:28:34;;;;;;;;;13.33;12.00;;;;;;;;119830;1185;25220;-74
2023/06/30 05:31:04;;;;;;;;;12.33;12.33;;;;;;;;119694;1186;24821;-74
2023/06/30 05:33:33;;;;;;;;;15.25;13.00;;;;;;;;119737;1192;25030;-72
2023/06/30 05:36:01;;;;;;;;;14.00;9.00;;;;;;;;119662;1192;24850;-71
2023/06/30 05:38:29;;;;;;;;;18.50;16.00;;;;;;;;119728;1185;24915;-74
2023/06/30 05:40:58;;;;;;;;;11.00;11.00;;;;;;;;119862;1192;24870;-71
2023/06/30 05:43:27;;;;;;;;;15.00;9.00;;;;;;;;119726;1189;25175;-71
2023/06/30 05:45:55;;;;;;;;;16.00;13.00;;;;;;;;119903;1191;25456;-72
2023/06/30 05:48:23;;;;;;;;;18.50;17.50;;;;;;;;119882;1184;24817;-72
2023/06/30 05:50:51;;;;;;;;;17.33;14.67;;;;;;;;119820;1192;25753;-67
2023/06/30 05:53:20;;;;;;;;;18.00;11.50;;;;;;;;119710;1192;24902;-66
2023/06/30 05:55:48;;;;;;;;;18.25;16.75;;;;;;;;119844;1184;25224;-71
2023/06/30 05:58:16;;;;;;;;;13.67;11.67;;;;;;;;119853;1183;25112;-77
2023/06/30 06:00:45;;;;;;;;;18.50;15.00;;;;;;;;119847;1188;25187;-78
2023/06/30 06:03:13;;;;;;;;;20.00;16.00;;;;;;;;119804;1189;25543;-67
2023/06/30 06:05:42;;;;;;;;;25.25;19.25;;;;;;;;119764;1192;25753;-73
2023/06/30 06:08:11;;;;;;;;;17.50;14.50;;;;;;;;119619;1189;25667;-82
2023/06/30 06:10:39;;;;;;;;;21.00;17.33;;;;;;;;119826;1183;25928;-82
2023/06/30 06:13:08;;;;;;;;;19.00;14.50;;;;;;;;119839;1192;24887;-78
2023/06/30 06:15:36;;;;;;;;;27.50;17.00;;;;;;;;119767;1188;25337;-78
2023/06/30 06:18:04;;;;;;;;;21.67;18.00;;;;;;;;119710;1183;25687;-79
2023/06/30 06:20:33;;;;;;;;;18.50;14.50;;;;;;;;119740;1192;24807;-77
2023/06/30 06:23:01;;;;;;;;;20.00;18.00;;;;;;;;119481;1190;24854;-78
2023/06/30 06:25:30;;;;;;;;;23.00;19.25;;;;;;;;119775;1192;25054;-80
2023/06/30 06:27:58;;;;;;;;;21.00;17.50;;;;;;;;119803;1188;25142;-75
2023/06/30 06:30:26;;;;;;;;;21.00;18.00;;;;;;;;119841;1189;25706;-83
2023/06/30 06:32:54;;;;;;;;;20.00;17.67;;;;;;;;119837;1192;24850;-80
2023/06/30 06:35:23;;;;;;;;;18.33;17.00;;;;;;;;119855;1192;25332;-76
2023/06/30 06:37:51;;;;;;;;;20.50;16.75;;;;;;;;119862;1192;24993;-71
2023/06/30 06:40:19;;;;;;;;;17.00;15.00;;;;;;;;119886;1183;25064;-73
2023/06/30 06:42:48;;;;;;;;;16.00;16.00;;;;;;;;119831;1192;25351;-75
2023/06/30 06:45:17;;;;;;;;;21.33;17.00;;;;;;;;119706;1185;25289;-73
2023/06/30 06:48:18;;;;;;;;;23.50;17.00;;;;;;;;119770;1188;25778;-75
2023/06/30 06:50:48;;;;;;;;;19.50;18.00;;;;;;;;119483;1192;24777;-74
2023/06/30 06:53:22;;;;;;;;;19.00;14.50;;;;;;;;119491;1189;25488;-73
2023/06/30 06:55:52;;;;;;;;;18.00;16.00;;;;;;;;119811;1185;25339;-74
2023/06/30 06:58:21;;;;;;;;;16.50;13.75;;;;;;;;119493;1189;25200;-75
2023/06/30 07:00:50;;;;;;;;;18.00;15.67;;;;;;;;119436;1192;24986;-77
2023/06/30 07:03:19;;;;;;;;;20.50;15.00;;;;;;;;119500;1184;25006;-79
2023/06/30 07:05:48;;;;;;;;;17.67;12.33;;;;;;;;119464;1193;25551;-84
2023/06/30 07:08:21;;;;;;;;;21.00;16.67;;;;;;;;119457;1185;25776;-82
2023/06/30 07:10:50;;;;;;;;;21.00;15.50;;;;;;;;119427;1193;25018;-83
2023/06/30 07:13:19;;;;;;;;;20.67;17.33;;;;;;;;119484;1192;24820;-81
2023/06/30 07:15:54;;;;;;;;;21.67;16.00;;;;;;;;119465;1192;25574;-81
2023/06/30 07:18:22;;;;;;;;;22.00;16.50;;;;;;;;119871;1192;25180;-85
2023/06/30 07:20:53;;;;;;;;;26.00;18.00;;;;;;;;119481;1192;25521;-73
2023/06/30 07:23:21;;;;;;;;;21.33;16.00;;;;;;;;119546;1189;25605;-75
2023/06/30 07:25:54;;;;;;;;;21.50;17.00;;;;;;;;119501;1185;25007;-82
2023/06/30 07:28:22;;;;;;;;;23.00;18.33;;;;;;;;119689;1185;25622;-79
2023/06/30 07:30:51;;;;;;;;;28.00;24.00;;;;;;;;119681;1193;25444;-82
2023/06/30 07:33:20;;;;;;;;;20.50;17.50;;;;;;;;119668;1193;25653;-82
2023/06/30 07:35:48;;;;;;;;;16.00;14.00;;;;;;;;119679;1193;24832;-82
2023/06/30 07:38:17;;;;;;;;;23.00;20.33;;;;;;;;119694;1180;25492;-84
2023/06/30 07:40:45;;;;;;;;;18.75;16.75;;;;;;;;119427;1193;25228;-78
2023/06/30 07:43:23;;;;;;;;;19.00;16.67;;;;;;;;119466;1190;25862;-83
2023/06/30 07:45:52;;;;;;;;;14.00;11.00;;;;;;;;119685;1193;25370;-83
2023/06/30 07:48:21;;;;;;;;;23.50;17.00;;;;;;;;119711;1192;25026;-83
2023/06/30 07:50:49;;;;;;;;;20.50;16.00;;;;;;;;119465;1193;25056;-83
2023/06/30 07:53:35;;;;;;;;;23.00;17.00;;;;;;;;119701;1185;25259;-81
2023/06/30 07:56:04;;;;;;;;;18.00;15.00;;;;;;;;119469;1193;25416;-81
2023/06/30 07:58:32;;;;;;;;;16.50;11.50;;;;;;;;119468;1193;25262;-83
2023/06/30 08:01:01;;;;;;;;;23.50;18.50;;;;;;;;119472;1185;25636;-86
2023/06/30 08:03:29;;;;;;;;;18.25;15.75;;;;;;;;119675;1192;25349;-82
2023/06/30 08:05:58;;;;;;;;;21.67;16.00;;;;;;;;119673;1193;25331;-81
2023/06/30 08:08:30;;;;;;;;;21.25;15.00;;;;;;;;119462;1185;25535;-84
2023/06/30 08:10:58;;;;;;;;;22.67;14.67;;;;;;;;119666;1193;25458;-81
2023/06/30 08:13:27;;;;;;;;;29.33;18.00;;;;;;;;119499;1185;24867;-80
2023/06/30 08:15:55;;;;;;;;;17.50;13.00;;;;;;;;119464;1193;24741;-81
2023/06/30 08:18:26;;;;;;;;;21.00;18.00;;;;;;;;119699;1185;25459;-80
2023/06/30 08:21:02;;;;;;;;;19.00;16.00;;;;;;;;119460;1193;25429;-78
2023/06/30 08:23:31;;;;;;;;;24.00;19.67;;;;;;;;119462;1186;25366;-79
2023/06/30 08:25:59;;;;;;;;;26.00;19.00;;;;;;;;119450;1193;25438;-79
2023/06/30 08:28:28;;;;;;;;;27.00;18.00;;;;;;;;119675;1192;25347;-80
2023/06/30 08:30:56;;;;;;;;;22.00;16.00;;;;;;;;119675;1193;24948;-79
2023/06/30 08:33:28;;;;;;;;;28.33;19.00;;;;;;;;119690;1192;24982;-81
2023/06/30 08:36:00;;;;;;;;;21.00;17.00;;;;;;;;119447;1193;25648;-80
2023/06/30 08:38:29;;;;;;;;;18.00;14.00;;;;;;;;119455;1193;26004;-79
2023/06/30 08:40:58;;;;;;;;;25.00;16.00;;;;;;;;119688;1193;24849;-80
2023/06/30 08:43:28;;;;;;;;;22.50;16.50;;;;;;;;119685;1193;25341;-81
2023/06/30 08:45:59;;;;;;;;;18.67;15.00;;;;;;;;119470;1186;24944;-80
2023/06/30 08:48:29;;;;;;;;;16.75;12.50;;;;;;;;119454;1193;25668;-80
2023/06/30 08:50:59;;;;;;;;;12.75;8.50;;;;;;;;119575;1186;25494;-78
2023/06/30 08:53:29;;;;;;;;;23.00;17.33;;;;;;;;119463;1193;24834;-77
2023/06/30 08:55:59;;;;;;;;;19.50;17.50;;;;;;;;119685;1193;24732;-78
2023/06/30 08:58:28;;;;;;;;;19.00;17.50;;;;;;;;119463;1193;25277;-78
2023/06/30 09:00:56;;;;;;;;;21.67;15.00;;;;;;;;119441;1193;25067;-78
2023/06/30 09:03:26;;;;;;;;;17.33;11.00;;;;;;;;119457;1193;25738;-77
2023/06/30 09:05:58;;;;;;;;;23.00;18.00;;;;;;;;119832;1188;25657;-75
2023/06/30 09:08:36;;;;;;;;;17.00;16.00;;;;;;;;119872;1183;25164;-74
2023/06/30 09:11:07;;;;;;;;;16.50;13.00;;;;;;;;119508;1192;25503;-68
2023/06/30 09:13:37;;;;;;;;;19.50;15.50;;;;;;;;119443;1192;25506;-65
2023/06/30 09:16:10;;;;;;;;;16.00;16.00;;;;;;;;119478;1192;25526;-78
2023/06/30 09:18:38;;;;;;;;;20.50;13.50;;;;;;;;119845;1183;25052;-65
2023/06/30 09:21:07;;;;;;;;;16.50;14.00;;;;;;;;119489;1184;25182;-72
2023/06/30 09:23:35;;;;;;;;;11.00;7.00;;;;;;;;119869;1192;25000;-74
2023/06/30 09:26:11;;;;;;;;;15.67;15.00;;;;;;;;119456;1182;24880;-79
2023/06/30 09:28:43;;;;;;;;;18.00;14.00;;;;;;;;119871;1183;25105;-78
2023/06/30 09:31:12;;;;;;;;;19.00;14.00;;;;;;;;119471;1192;25610;-72
2023/06/30 09:33:40;;;;;;;;;13.75;13.75;;;;;;;;119464;1192;25390;-79
2023/06/30 09:36:15;;;;;;;;;18.00;14.33;;;;;;;;119867;1184;25514;-77
2023/06/30 09:38:44;;;;;;;;;19.50;17.00;;;;;;;;119789;1192;25446;-71
2023/06/30 09:41:20;;;;;;;;;22.33;17.00;;;;;;;;119845;1192;24900;-73
2023/06/30 09:43:56;;;;;;;;;20.50;16.00;;;;;;;;119865;1188;25232;-81
2023/06/30 09:46:24;;;;;;;;;21.33;15.00;;;;;;;;119859;1183;24914;-75
2023/06/30 09:48:55;;;;;;;;;21.33;14.00;;;;;;;;119478;1185;25647;-77
2023/06/30 09:51:23;;;;;;;;;19.33;14.33;;;;;;;;119688;1189;24883;-78
2023/06/30 09:53:53;;;;;;;;;15.00;13.00;;;;;;;;119840;1192;24855;-78
2023/06/30 09:56:22;;;;;;;;;14.67;12.33;;;;;;;;119870;1188;24917;-74
2023/06/30 09:58:56;;;;;;;;;20.00;13.50;;;;;;;;119486;1192;25005;-77
2023/06/30 10:01:25;;;;;;;;;16.75;13.25;;;;;;;;119524;1189;25253;-78
2023/06/30 10:03:54;;;;;;;;;13.50;13.00;;;;;;;;119800;1192;25466;-75
2023/06/30 10:06:23;;;;;;;;;22.00;15.00;;;;;;;;119824;1192;24923;-78
2023/06/30 10:08:52;;;;;;;;;10.50;9.50;;;;;;;;119707;1180;24906;-74
2023/06/30 10:11:22;;;;;;;;;20.67;15.67;;;;;;;;119495;1186;24912;-78
2023/06/30 10:13:53;;;;;;;;;15.50;14.50;;;;;;;;119484;1189;25672;-78
2023/06/30 10:16:22;;;;;;;;;14.50;11.00;;;;;;;;119449;1193;25253;-78
2023/06/30 10:18:51;;;;;;;;;14.50;12.00;;;;;;;;119464;1193;25477;-79
2023/06/30 10:21:20;;;;;;;;;16.00;13.00;;;;;;;;119475;1190;24884;-70
2023/06/30 10:23:49;;;;;;;;;21.67;16.00;;;;;;;;119466;1189;25080;-70
2023/06/30 10:26:21;;;;;;;;;17.00;16.00;;;;;;;;119470;1185;25480;-71
2023/06/30 10:28:50;;;;;;;;;15.00;14.00;;;;;;;;119521;1186;25477;-72
2023/06/30 10:31:19;;;;;;;;;15.00;13.50;;;;;;;;119863;1192;24847;-66
2023/06/30 10:33:48;;;;;;;;;15.33;13.67;;;;;;;;119487;1192;25097;-76
2023/06/30 10:36:17;;;;;;;;;17.00;14.50;;;;;;;;119501;1190;24848;-75
2023/06/30 10:38:46;;;;;;;;;17.00;16.00;;;;;;;;119893;1179;25300;-69
2023/06/30 10:41:20;;;;;;;;;11.67;11.33;;;;;;;;119524;1184;25540;-70
2023/06/30 10:44:00;;;;;;;;;18.00;15.00;;;;;;;;119860;1183;26103;-65
2023/06/30 10:46:51;;;;;;;;;16.00;14.00;;;;;;;;119869;1192;24979;-75
2023/06/30 10:49:19;;;;;;;;;20.00;15.00;;;;;;;;119492;1189;25255;-71
2023/06/30 10:51:49;;;;;;;;;17.33;15.00;;;;;;;;119872;1192;25481;-68
2023/06/30 10:54:25;;;;;;;;;9.67;9.67;;;;;;;;119869;1192;24803;-76
2023/06/30 10:57:16;;;;;;;;;19.00;13.50;;;;;;;;119843;1184;25236;-77
2023/06/30 11:00:04;;;;;;;;;15.00;12.00;;;;;;;;119513;1190;25539;-62
2023/06/30 11:02:34;;;;;;;;;16.50;10.00;;;;;;;;119838;1192;25262;-62
2023/06/30 11:05:30;;;;;;;;;10.67;10.00;;;;;;;;119461;1180;25588;-65
2023/06/30 11:08:02;;;;;;;;;16.33;14.67;;;;;;;;119816;1190;25368;-68
2023/06/30 11:10:36;;;;;;;;;17.75;13.25;;;;;;;;119827;1192;25528;-63
2023/06/30 11:13:09;;;;;;;;;12.00;10.00;;;;;;;;119824;1183;25634;-72
2023/06/30 11:15:45;;;;;;;;;15.00;14.25;;;;;;;;119446;1192;24993;-62
2023/06/30 11:18:20;;;;;;;;;15.00;15.00;;;;;;;;119843;1188;24753;-65
2023/06/30 11:21:03;;;;;;;;;10.67;9.00;;;;;;;;119702;1184;25518;-69
2023/06/30 11:23:42;;;;;;;;;18.00;12.67;;;;;;;;119478;1180;25132;-69
2023/06/30 11:26:13;;;;;;;;;14.33;11.67;;;;;;;;119872;1192;24889;-68
2023/06/30 11:28:43;;;;;;;;;16.00;12.67;;;;;;;;119612;1189;25532;-66
2023/06/30 11:31:11;;;;;;;;;14.33;8.33;;;;;;;;119416;1192;24730;-63
2023/06/30 11:33:41;;;;;;;;;15.00;12.00;;;;;;;;119798;1183;25196;-62
2023/06/30 11:36:17;;;;;;;;;15.33;13.67;;;;;;;;119476;1185;25708;-70
2023/06/30 11:38:49;;;;;;;;;12.00;11.00;;;;;;;;119428;1187;25360;-67
2023/06/30 11:41:19;;;;;;;;;15.50;12.25;;;;;;;;119559;1192;25136;-71
2023/06/30 11:43:58;;;;;;;;;13.00;10.50;;;;;;;;119477;1190;24891;-65
2023/06/30 11:46:29;;;;;;;;;12.00;11.00;;;;;;;;119782;1185;24961;-66
2023/06/30 11:48:58;;;;;;;;;12.00;11.00;;;;;;;;119816;1183;25662;-63
2023/06/30 11:51:26;;;;;;;;;12.00;12.00;;;;;;;;119467;1185;25452;-71
2023/06/30 11:53:54;;;;;;;;;12.75;10.25;;;;;;;;119454;1186;25567;-67
2023/06/30 11:56:22;;;;;;;;;15.50;10.50;;;;;;;;119499;1192;25518;-64
2023/06/30 11:58:52;;;;;;;;;12.50;12.00;;;;;;;;119711;1180;25185;-63
2023/06/30 12:01:21;;;;;;;;;11.00;8.50;;;;;;;;119471;1192;24946;-67
2023/06/30 12:03:59;;;;;;;;;14.33;12.33;;;;;;;;119483;1185;25119;-72
2023/06/30 12:06:28;;;;;;;;;15.00;11.67;;;;;;;;119442;1186;25404;-67
2023/06/30 12:08:57;;;;;;;;;11.00;10.00;;;;;;;;119777;1189;25385;-72
2023/06/30 12:11:29;;;;;;;;;14.50;11.50;;;;;;;;119747;1189;25403;-75
2023/06/30 12:13:58;;;;;;;;;14.25;10.25;;;;;;;;119474;1186;25042;-63
2023/06/30 12:16:26;;;;;;;;;10.50;10.50;;;;;;;;119470;1185;25618;-67
2023/06/30 12:18:55;;;;;;;;;16.33;13.67;;;;;;;;119465;1192;25014;-66
2023/06/30 12:21:23;;;;;;;;;11.50;8.50;;;;;;;;119774;1189;25249;-66
2023/06/30 12:23:51;;;;;;;;;9.33;9.33;;;;;;;;119804;1189;25753;-64
2023/06/30 12:26:25;;;;;;;;;16.33;16.00;;;;;;;;119477;1192;25054;-79
2023/06/30 12:29:04;;;;;;;;;12.33;9.67;;;;;;;;119524;1186;24770;-72
2023/06/30 12:31:33;;;;;;;;;14.75;12.00;;;;;;;;119844;1184;25659;-68
2023/06/30 12:34:02;;;;;;;;;12.67;11.00;;;;;;;;119480;1193;25253;-62
2023/06/30 12:36:30;;;;;;;;;8.00;8.00;;;;;;;;119811;1192;24823;-63
2023/06/30 12:38:59;;;;;;;;;8.33;8.33;;;;;;;;119473;1192;25713;-64
2023/06/30 12:41:27;;;;;;;;;10.00;10.00;;;;;;;;119589;1192;25657;-65
2023/06/30 12:43:58;;;;;;;;;9.00;9.00;;;;;;;;119797;1188;25460;-65
2023/06/30 12:46:27;;;;;;;;;10.33;8.00;;;;;;;;119782;1188;25330;-64
2023/06/30 12:48:55;;;;;;;;;15.67;11.00;;;;;;;;119731;1192;25587;-64
2023/06/30 12:51:23;;;;;;;;;;;;;;;;;;119753;1192;25123;-65
2023/06/30 12:53:52;;;;;;;;;11.67;10.33;;;;;;;;119661;1192;24724;-63
2023/06/30 12:56:20;;;;;;;;;14.00;9.00;;;;;;;;119864;1192;25077;-66
2023/06/30 12:58:49;;;;;;;;;9.67;8.33;;;;;;;;119861;1192;24921;-65
2023/06/30 13:01:17;;;;;;;;;14.50;12.50;;;;;;;;119846;1192;24865;-65
2023/06/30 13:03:46;;;;;;;;;14.00;10.00;;;;;;;;119722;1192;25651;-65
2023/06/30 13:06:14;;;;;;;;;11.00;11.00;;;;;;;;119502;1185;25516;-66
2023/06/30 13:08:43;;;;;;;;;9.25;9.25;;;;;;;;119871;1192;24806;-68
2023/06/30 13:11:11;;;;;;;;;12.00;10.00;;;;;;;;119480;1188;25565;-69
2023/06/30 13:13:39;;;;;;;;;10.00;8.00;;;;;;;;119577;1186;25253;-69
2023/06/30 13:16:08;;;;;;;;;9.50;9.50;;;;;;;;119805;1192;25350;-67
2023/06/30 13:18:36;;;;;;;;;14.00;13.50;;;;;;;;119490;1185;25040;-67
2023/06/30 13:21:05;;;;;;;;;10.67;10.00;;;;;;;;119864;1183;25249;-68
2023/06/30 13:23:33;;;;;;;;;17.00;13.50;;;;;;;;119828;1185;25360;-67
2023/06/30 13:26:06;;;;;;;;;16.00;10.00;;;;;;;;119458;1185;25461;-65
2023/06/30 13:28:34;;;;;;;;;12.00;10.00;;;;;;;;119695;1189;25082;-64
2023/06/30 13:31:05;;;;;;;;;12.00;11.00;;;;;;;;119442;1193;25290;-64
2023/06/30 13:33:34;;;;;;;;;11.00;10.33;;;;;;;;119440;1192;25356;-66
2023/06/30 13:36:02;;;;;;;;;12.00;9.50;;;;;;;;119692;1192;24830;-65
2023/06/30 13:38:31;;;;;;;;;7.00;7.00;;;;;;;;119741;1192;24665;-64
2023/06/30 13:40:59;;;;;;;;;10.00;9.00;;;;;;;;119479;1188;24885;-62
2023/06/30 13:43:28;;;;;;;;;9.67;7.67;;;;;;;;119853;1184;25458;-64
2023/06/30 13:45:59;;;;;;;;;11.00;10.00;;;;;;;;119868;1188;25148;-64
2023/06/30 13:48:27;;;;;;;;;9.50;9.50;;;;;;;;119458;1185;24878;-64
2023/06/30 13:50:55;;;;;;;;;15.00;11.00;;;;;;;;119773;1192;25717;-65
2023/06/30 13:53:24;;;;;;;;;15.00;12.00;;;;;;;;119826;1192;25499;-63
2023/06/30 13:55:55;;;;;;;;;11.00;10.00;;;;;;;;119772;1189;25179;-64
2023/06/30 13:58:24;;;;;;;;;10.33;9.33;;;;;;;;119874;1183;25591;-65
2023/06/30 14:00:52;;;;;;;;;11.00;9.50;;;;;;;;119798;1189;25438;-66
2023/06/30 14:03:21;;;;;;;;;12.50;11.00;;;;;;;;119790;1189;24855;-66
2023/06/30 14:05:51;;;;;;;;;14.67;9.67;;;;;;;;119529;1185;25489;-64
2023/06/30 14:08:20;;;;;;;;;10.50;8.00;;;;;;;;119793;1188;24870;-63
2023/06/30 14:10:48;;;;;;;;;9.67;9.00;;;;;;;;119775;1189;25444;-62
2023/06/30 14:13:17;;;;;;;;;12.00;10.00;;;;;;;;119757;1192;24964;-63
2023/06/30 14:15:45;;;;;;;;;9.00;9.00;;;;;;;;119459;1193;25497;-64
2023/06/30 14:18:14;;;;;;;;;12.50;10.00;;;;;;;;119815;1188;25286;-62
2023/06/30 14:20:46;;;;;;;;;13.50;10.00;;;;;;;;119473;1185;25678;-70
2023/06/30 14:23:15;;;;;;;;;8.00;8.00;;;;;;;;119788;1189;25547;-65
2023/06/30 14:25:43;;;;;;;;;15.00;11.50;;;;;;;;119469;1185;24900;-64
2023/06/30 14:28:12;;;;;;;;;12.00;11.00;;;;;;;;119812;1184;25732;-66
2023/06/30 14:30:41;;;;;;;;;13.33;11.33;;;;;;;;119778;1188;24980;-65